createdAt,value
2019-04-30T00:00:47.626Z,99.90
2019-04-30T00:03:25.015Z,99.90
2019-04-30T00:05:57.278Z,99.90
2019-04-30T00:08:25.791Z,99.90
2019-04-30T00:10:55.696Z,99.90
2019-04-30T00:13:25.904Z,99.90
2019-04-30T00:15:58.729Z,99.90
2019-04-30T00:18:25.572Z,99.90
2019-04-30T00:20:55.367Z,99.90
2019-04-30T00:23:27.132Z,99.90
2019-04-30T00:25:58.225Z,99.90
2019-04-30T00:28:25.570Z,99.90
2019-04-30T00:30:56.169Z,99.90
2019-04-30T00:33:27.768Z,99.90
2019-04-30T00:35:57.938Z,99.90
2019-04-30T00:38:29.547Z,99.90
2019-04-30T00:41:01.829Z,99.90
2019-04-30T00:43:28.237Z,99.90
2019-04-30T00:45:57.087Z,99.90
2019-04-30T00:48:29.675Z,99.90
2019-04-30T00:50:56.357Z,99.90
2019-04-30T00:53:26.275Z,99.90
2019-04-30T00:55:55.618Z,99.90
2019-04-30T00:58:30.255Z,99.90
2019-04-30T01:00:59.778Z,99.90
2019-04-30T01:03:30.046Z,99.90
2019-04-30T01:05:58.829Z,99.90
2019-04-30T01:08:28.708Z,99.90
2019-04-30T01:10:59.786Z,99.90
2019-04-30T01:13:29.133Z,99.90
2019-04-30T01:15:58.759Z,99.90
2019-04-30T01:18:31.826Z,99.90
2019-04-30T01:20:58.665Z,99.90
2019-04-30T01:23:29.529Z,99.90
2019-04-30T01:25:58.630Z,99.90
2019-04-30T01:28:28.433Z,99.90
2019-04-30T01:31:01.911Z,99.90
2019-04-30T01:33:34.603Z,99.90
2019-04-30T01:36:04.081Z,99.90
2019-04-30T01:38:31.149Z,99.90
2019-04-30T01:40:59.964Z,99.90
2019-04-30T01:43:33.087Z,99.90
2019-04-30T01:46:01.733Z,99.90
2019-04-30T01:48:29.689Z,99.90
2019-04-30T01:50:58.691Z,99.90
2019-04-30T01:53:28.963Z,99.90
2019-04-30T01:56:09.136Z,99.90
2019-04-30T01:58:40.599Z,99.90
2019-04-30T02:01:19.013Z,99.90
2019-04-30T02:03:48.715Z,99.90
2019-04-30T02:06:19.699Z,99.90
2019-04-30T02:08:49.371Z,99.90
2019-04-30T02:11:18.988Z,99.90
2019-04-30T02:13:49.159Z,99.90
2019-04-30T02:16:18.772Z,99.90
2019-04-30T02:18:49.514Z,99.90
2019-04-30T02:21:19.512Z,99.90
2019-04-30T02:23:49.363Z,99.90
2019-04-30T02:26:18.743Z,99.90
2019-04-30T02:28:49.509Z,99.90
2019-04-30T02:31:19.427Z,99.90
2019-04-30T02:33:50.487Z,99.90
2019-04-30T02:36:40.023Z,99.90
2019-04-30T02:39:10.840Z,99.90
2019-04-30T02:41:41.120Z,99.90
2019-04-30T02:44:11.284Z,99.90
2019-04-30T02:46:41.883Z,99.90
2019-04-30T02:49:11.897Z,99.90
2019-04-30T02:51:42.198Z,99.90
2019-04-30T02:54:16.762Z,99.90
2019-04-30T02:56:47.427Z,99.90
2019-04-30T02:59:16.269Z,99.90
2019-04-30T03:01:45.068Z,99.90
2019-04-30T03:04:14.231Z,99.90
2019-04-30T03:06:43.088Z,99.90
2019-04-30T03:09:12.306Z,99.90
2019-04-30T03:11:41.222Z,99.90
2019-04-30T03:14:10.683Z,99.90
2019-04-30T03:16:52.601Z,99.90
2019-04-30T03:19:22.441Z,99.90
2019-04-30T03:21:53.122Z,99.90
2019-04-30T03:24:21.880Z,99.90
2019-04-30T03:26:50.683Z,99.90
2019-04-30T03:29:23.377Z,99.90
2019-04-30T03:31:52.296Z,99.90
2019-04-30T03:34:25.869Z,99.90
2019-04-30T03:36:51.249Z,99.90
2019-04-30T03:39:20.152Z,99.90
2019-04-30T03:41:50.211Z,99.90
2019-04-30T03:44:25.603Z,99.90
2019-04-30T03:46:50.013Z,99.90
2019-04-30T03:49:20.230Z,99.90
2019-04-30T03:51:49.844Z,99.90
2019-04-30T03:54:19.442Z,99.90
2019-04-30T03:56:50.124Z,99.90
2019-04-30T03:59:20.065Z,99.90
2019-04-30T04:01:50.517Z,99.90
2019-04-30T04:04:26.384Z,99.90
2019-04-30T04:07:10.219Z,99.90
2019-04-30T04:09:50.257Z,99.90
2019-04-30T04:12:22.535Z,99.90
2019-04-30T04:14:51.803Z,99.90
2019-04-30T04:17:21.337Z,99.90
2019-04-30T04:19:51.569Z,99.90
2019-04-30T04:22:21.099Z,99.90
2019-04-30T04:24:50.946Z,99.90
2019-04-30T04:27:19.962Z,99.90
2019-04-30T04:29:50.974Z,99.90
2019-04-30T04:32:23.669Z,99.90
2019-04-30T04:34:50.789Z,99.90
2019-04-30T04:37:20.530Z,99.90
2019-04-30T04:39:50.130Z,99.90
2019-04-30T04:42:19.843Z,99.90
2019-04-30T04:44:50.244Z,99.90
2019-04-30T04:47:20.134Z,99.90
2019-04-30T04:49:53.202Z,99.90
2019-04-30T04:52:21.534Z,99.90
2019-04-30T04:54:51.141Z,99.90
2019-04-30T04:57:22.710Z,99.90
2019-04-30T04:59:50.897Z,99.90
2019-04-30T05:02:32.735Z,99.90
2019-04-30T05:05:00.329Z,99.90
2019-04-30T05:07:29.167Z,99.90
2019-04-30T05:10:00.562Z,99.90
2019-04-30T05:12:29.727Z,99.90
2019-04-30T05:14:59.809Z,99.90
2019-04-30T05:17:29.627Z,99.90
2019-04-30T05:19:59.428Z,99.90
2019-04-30T05:22:29.378Z,99.90
2019-04-30T05:24:58.941Z,99.90
2019-04-30T05:27:30.194Z,99.90
2019-04-30T05:29:59.558Z,99.90
2019-04-30T05:32:29.316Z,99.90
2019-04-30T05:34:58.683Z,99.90
2019-04-30T05:37:28.464Z,99.90
2019-04-30T05:39:58.486Z,99.90
2019-04-30T05:42:28.783Z,99.90
2019-04-30T05:44:59.181Z,99.90
2019-04-30T05:47:29.068Z,99.90
2019-04-30T05:49:58.510Z,99.90
2019-04-30T05:52:29.068Z,99.90
2019-04-30T05:54:58.511Z,99.90
2019-04-30T05:57:29.427Z,99.90
2019-04-30T05:59:58.606Z,99.90
2019-04-30T06:02:32.999Z,99.90
2019-04-30T06:04:58.794Z,99.90
2019-04-30T06:07:29.807Z,99.90
2019-04-30T06:10:00.702Z,99.90
2019-04-30T06:12:31.109Z,99.90
2019-04-30T06:15:09.024Z,99.90
2019-04-30T06:17:39.248Z,99.90
2019-04-30T06:20:18.117Z,99.90
2019-04-30T06:22:39.165Z,99.90
2019-04-30T06:25:10.532Z,99.90
2019-04-30T06:27:38.793Z,99.90
2019-04-30T06:30:11.843Z,99.90
2019-04-30T06:32:39.575Z,99.90
2019-04-30T06:35:09.219Z,99.90
2019-04-30T06:37:39.088Z,99.90
2019-04-30T06:40:11.466Z,99.90
2019-04-30T06:42:40.640Z,99.90
2019-04-30T06:45:09.873Z,99.90
2019-04-30T06:47:39.057Z,99.90
2019-04-30T06:50:09.678Z,99.90
2019-04-30T06:52:39.012Z,99.90
2019-04-30T06:55:09.435Z,99.90
2019-04-30T06:57:38.497Z,99.90
2019-04-30T07:00:09.895Z,99.90
2019-04-30T07:02:39.317Z,99.90
2019-04-30T07:05:10.056Z,99.90
2019-04-30T07:07:41.730Z,99.90
2019-04-30T07:10:20.384Z,99.90
2019-04-30T07:12:59.819Z,99.90
2019-04-30T07:15:29.564Z,99.90
2019-04-30T07:17:59.158Z,99.90
2019-04-30T07:20:29.145Z,99.90
2019-04-30T07:23:02.562Z,99.90
2019-04-30T07:25:29.374Z,99.90
2019-04-30T07:27:59.803Z,99.90
2019-04-30T07:30:30.709Z,99.90
2019-04-30T07:32:59.712Z,99.90
2019-04-30T07:35:29.232Z,99.90
2019-04-30T07:38:00.656Z,99.90
2019-04-30T07:40:29.337Z,99.90
2019-04-30T07:42:59.135Z,99.90
2019-04-30T07:45:31.688Z,99.90
2019-04-30T07:47:59.411Z,99.90
2019-04-30T07:50:31.310Z,99.90
2019-04-30T07:53:05.394Z,99.90
2019-04-30T07:55:29.615Z,99.90
2019-04-30T07:57:59.194Z,99.90
2019-04-30T08:00:30.992Z,99.90
2019-04-30T08:03:06.675Z,99.90
2019-04-30T08:05:40.375Z,99.90
2019-04-30T08:08:21.191Z,99.90
2019-04-30T08:10:39.886Z,99.90
2019-04-30T08:13:13.878Z,99.90
2019-04-30T08:15:42.116Z,99.90
2019-04-30T08:18:11.276Z,99.90
2019-04-30T08:20:42.604Z,99.90
2019-04-30T08:23:30.572Z,99.90
2019-04-30T08:25:48.710Z,99.90
2019-04-30T08:28:19.225Z,99.90
2019-04-30T08:30:49.402Z,99.90
2019-04-30T08:33:19.434Z,99.90
2019-04-30T08:35:49.997Z,99.90
2019-04-30T08:38:23.213Z,99.90
2019-04-30T08:40:56.042Z,99.90
2019-04-30T08:43:25.807Z,99.90
2019-04-30T08:45:59.512Z,99.90
2019-04-30T08:48:45.518Z,99.90
2019-04-30T08:51:02.856Z,99.90
2019-04-30T08:53:36.291Z,99.90
2019-04-30T08:56:10.530Z,99.90
2019-04-30T08:58:42.052Z,99.90
2019-04-30T09:01:11.790Z,99.60
2019-04-30T09:03:45.355Z,99.90
2019-04-30T09:09:10.974Z,99.90
2019-04-30T09:11:51.842Z,99.90
2019-04-30T09:14:15.306Z,99.90
2019-04-30T09:16:44.488Z,99.90
2019-04-30T09:19:13.906Z,99.90
2019-04-30T09:21:45.754Z,99.90
2019-04-30T09:24:19.122Z,99.90
2019-04-30T09:26:49.353Z,99.90
2019-04-30T09:29:22.298Z,99.80
2019-04-30T09:31:55.188Z,99.90
2019-04-30T09:34:25.475Z,99.90
2019-04-30T09:36:59.074Z,99.90
2019-04-30T09:39:31.112Z,99.90
2019-04-30T09:42:04.358Z,99.90
2019-04-30T09:44:33.704Z,99.90
2019-04-30T09:47:06.148Z,99.90
2019-04-30T09:49:41.520Z,99.90
2019-04-30T09:52:11.476Z,99.90
2019-04-30T09:54:43.530Z,99.90
2019-04-30T09:57:13.809Z,99.90
2019-04-30T09:59:50.742Z,99.90
2019-04-30T10:02:25.235Z,99.90
2019-04-30T10:04:54.615Z,99.90
2019-04-30T10:07:29.426Z,99.90
2019-04-30T10:12:55.844Z,99.90
2019-04-30T10:15:36.343Z,99.90
2019-04-30T10:18:11.054Z,99.90
2019-04-30T10:20:45.383Z,99.90
2019-04-30T10:23:15.091Z,99.90
2019-04-30T10:25:44.985Z,99.90
2019-04-30T10:28:14.156Z,99.90
2019-04-30T10:33:40.599Z,99.90
2019-04-30T10:36:11.112Z,99.90
2019-04-30T10:38:41.033Z,99.90
2019-04-30T10:41:14.635Z,99.90
2019-04-30T10:43:45.047Z,99.90
2019-04-30T10:46:16.520Z,99.90
2019-04-30T10:48:51.094Z,99.90
2019-04-30T10:51:21.475Z,99.90
2019-04-30T10:53:53.265Z,99.90
2019-04-30T10:56:24.644Z,99.90
2019-04-30T10:58:56.760Z,99.90
2019-04-30T11:01:29.169Z,99.90
2019-04-30T11:04:01.174Z,99.90
2019-04-30T11:06:33.928Z,99.90
2019-04-30T11:09:13.910Z,99.90
2019-04-30T11:11:45.093Z,99.90
2019-04-30T11:14:18.397Z,99.90
2019-04-30T11:16:52.110Z,99.90
2019-04-30T11:19:23.363Z,99.90
2019-04-30T11:21:56.089Z,99.90
2019-04-30T11:24:36.564Z,99.90
2019-04-30T11:27:00.575Z,99.50
2019-04-30T11:29:34.138Z,99.90
2019-04-30T11:32:10.291Z,99.60
2019-04-30T11:34:43.773Z,99.90
2019-04-30T11:37:14.591Z,99.80
2019-04-30T11:39:46.717Z,99.90
2019-04-30T11:42:19.842Z,99.10
2019-04-30T11:44:51.196Z,99.90
2019-04-30T11:47:23.361Z,99.90
2019-04-30T11:49:53.664Z,99.30
2019-04-30T11:52:26.807Z,99.40
2019-04-30T11:54:55.961Z,99.30
2019-04-30T11:57:29.643Z,99.30
2019-04-30T12:00:03.510Z,99.20
2019-04-30T12:02:39.204Z,99.50
2019-04-30T12:05:11.818Z,99.90
2019-04-30T12:07:48.340Z,99.20
2019-04-30T12:10:24.931Z,98.10
2019-04-30T12:12:58.551Z,99.90
2019-04-30T12:15:29.110Z,98.90
2019-04-30T12:18:05.682Z,99.60
2019-04-30T12:20:35.389Z,99.60
2019-04-30T12:23:04.551Z,97.40
2019-04-30T12:25:45.169Z,97.70
2019-04-30T12:28:15.586Z,99.80
2019-04-30T12:30:48.790Z,98.50
2019-04-30T12:33:19.164Z,99.90
2019-04-30T12:35:53.001Z,99.50
2019-04-30T12:38:22.614Z,98.30
2019-04-30T12:40:53.709Z,97.00
2019-04-30T12:43:23.945Z,98.30
2019-04-30T12:46:02.624Z,99.00
2019-04-30T12:48:26.729Z,98.00
2019-04-30T12:50:59.020Z,99.90
2019-04-30T12:53:37.594Z,98.30
2019-04-30T12:56:10.867Z,97.60
2019-04-30T12:58:44.891Z,97.00
2019-04-30T13:01:16.253Z,96.40
2019-04-30T13:03:58.334Z,97.00
2019-04-30T13:06:26.175Z,96.60
2019-04-30T13:08:54.895Z,98.00
2019-04-30T13:11:30.288Z,97.00
2019-04-30T13:14:00.348Z,98.10
2019-04-30T13:16:30.877Z,99.70
2019-04-30T13:19:01.859Z,99.00
2019-04-30T13:21:32.942Z,99.30
2019-04-30T13:24:02.933Z,99.90
2019-04-30T13:26:35.973Z,98.50
2019-04-30T13:29:17.803Z,98.00
2019-04-30T13:31:51.323Z,99.70
2019-04-30T13:34:35.569Z,99.30
2019-04-30T13:37:09.339Z,99.30
2019-04-30T13:42:56.318Z,99.90
2019-04-30T13:45:26.016Z,99.40
2019-04-30T13:47:58.719Z,99.00
2019-04-30T13:50:29.193Z,99.20
2019-04-30T13:52:59.449Z,98.90
2019-04-30T13:55:42.863Z,98.90
2019-04-30T13:58:05.710Z,98.80
2019-04-30T14:00:35.319Z,98.70
2019-04-30T14:03:10.405Z,98.90
2019-04-30T14:05:44.175Z,98.50
2019-04-30T14:08:34.047Z,99.00
2019-04-30T14:11:06.396Z,98.90
2019-04-30T14:13:36.760Z,99.50
2019-04-30T14:16:10.095Z,99.10
2019-04-30T14:18:40.813Z,98.40
2019-04-30T14:21:13.501Z,98.30
2019-04-30T14:23:45.036Z,97.60
2019-04-30T14:26:15.084Z,97.70
2019-04-30T14:28:45.318Z,97.90
2019-04-30T14:31:16.023Z,99.90
2019-04-30T14:33:49.052Z,99.00
2019-04-30T14:36:19.427Z,99.70
2019-04-30T14:38:49.141Z,98.00
2019-04-30T14:41:21.349Z,99.10
2019-04-30T14:43:53.162Z,99.40
2019-04-30T14:46:29.444Z,98.80
2019-04-30T14:49:17.792Z,99.90
2019-04-30T14:51:49.013Z,98.10
2019-04-30T14:54:33.398Z,99.70
2019-04-30T14:57:07.841Z,97.00
2019-04-30T14:59:43.148Z,97.20
2019-04-30T15:02:20.095Z,97.70
2019-04-30T15:04:52.733Z,97.10
2019-04-30T15:07:21.548Z,99.60
2019-04-30T15:09:56.139Z,97.50
2019-04-30T15:12:25.685Z,97.30
2019-04-30T15:14:55.134Z,97.10
2019-04-30T15:17:26.305Z,97.90
2019-04-30T15:20:00.219Z,98.50
2019-04-30T15:22:29.175Z,98.10
2019-04-30T15:25:00.736Z,98.00
2019-04-30T15:27:32.526Z,98.80
2019-04-30T15:30:03.738Z,98.20
2019-04-30T15:32:36.011Z,98.40
2019-04-30T15:35:08.861Z,97.70
2019-04-30T15:37:42.231Z,97.90
2019-04-30T15:40:15.077Z,98.20
2019-04-30T15:42:47.685Z,97.50
2019-04-30T15:45:19.143Z,98.30
2019-04-30T15:47:51.723Z,98.20
2019-04-30T15:50:21.600Z,98.00
2019-04-30T15:52:52.862Z,98.00
2019-04-30T15:55:23.136Z,96.80
2019-04-30T15:57:59.327Z,96.50
2019-04-30T16:00:31.339Z,96.60
2019-04-30T16:03:06.252Z,96.70
2019-04-30T16:05:40.479Z,97.70
2019-04-30T16:08:19.118Z,98.60
2019-04-30T16:11:08.245Z,98.30
2019-04-30T16:13:39.465Z,98.50
2019-04-30T16:16:09.139Z,98.60
2019-04-30T16:18:41.269Z,98.60
2019-04-30T16:21:13.859Z,98.70
2019-04-30T16:23:42.865Z,98.80
2019-04-30T16:26:16.068Z,99.00
2019-04-30T16:28:45.177Z,99.50
2019-04-30T16:31:24.730Z,98.90
2019-04-30T16:33:56.024Z,99.30
2019-04-30T16:36:25.564Z,99.90
2019-04-30T16:38:54.436Z,99.20
2019-04-30T16:41:31.458Z,99.40
2019-04-30T16:43:59.283Z,99.50
2019-04-30T16:46:31.189Z,99.40
2019-04-30T16:49:02.113Z,99.90
2019-04-30T16:51:33.293Z,99.90
2019-04-30T16:54:03.989Z,99.90
2019-04-30T16:56:34.914Z,99.90
2019-04-30T16:59:06.097Z,99.90
2019-04-30T17:01:38.109Z,99.90
2019-04-30T17:04:19.184Z,99.90
2019-04-30T17:07:08.764Z,99.90
2019-04-30T17:09:45.025Z,99.90
2019-04-30T17:12:23.021Z,99.90
2019-04-30T17:15:09.943Z,99.90
2019-04-30T17:17:40.251Z,99.90
2019-04-30T17:20:10.130Z,99.90
2019-04-30T17:22:42.917Z,99.90
2019-04-30T17:25:12.249Z,99.90
2019-04-30T17:27:42.495Z,99.90
2019-04-30T17:30:13.202Z,99.90
2019-04-30T17:32:43.655Z,99.90
2019-04-30T17:35:14.711Z,99.90
2019-04-30T17:37:48.330Z,99.90
2019-04-30T17:40:20.284Z,99.90
2019-04-30T17:42:49.070Z,99.90
2019-04-30T17:45:21.041Z,99.90
2019-04-30T17:47:52.750Z,99.90
2019-04-30T17:50:23.836Z,99.90
2019-04-30T17:52:54.168Z,99.90
2019-04-30T17:55:25.078Z,99.90
2019-04-30T17:57:58.538Z,99.90
2019-04-30T18:00:31.896Z,99.90
2019-04-30T18:03:02.407Z,99.90
2019-04-30T18:05:36.475Z,99.90
2019-04-30T18:08:06.960Z,99.90
2019-04-30T18:10:39.426Z,99.90
2019-04-30T18:13:09.535Z,99.90
2019-04-30T18:15:41.550Z,99.90
2019-04-30T18:18:29.784Z,99.90
2019-04-30T18:21:00.326Z,99.90
2019-04-30T18:23:50.146Z,99.90
2019-04-30T18:26:21.790Z,99.90
2019-04-30T18:28:53.868Z,99.90
2019-04-30T18:31:29.830Z,99.90
2019-04-30T18:33:59.814Z,99.90
2019-04-30T18:36:31.131Z,99.90
2019-04-30T18:38:59.963Z,99.90
2019-04-30T18:41:30.486Z,99.90
2019-04-30T18:44:01.884Z,99.90
2019-04-30T18:46:33.308Z,99.90
2019-04-30T18:49:12.508Z,99.90
2019-04-30T18:51:39.323Z,99.90
2019-04-30T18:54:11.319Z,99.90
2019-04-30T18:56:40.250Z,99.90
2019-04-30T18:59:11.703Z,99.90
2019-04-30T19:01:41.672Z,99.90
2019-04-30T19:04:13.298Z,99.90
2019-04-30T19:06:43.372Z,99.90
2019-04-30T19:09:14.250Z,99.90
2019-04-30T19:12:03.939Z,99.90
2019-04-30T19:14:51.245Z,99.90
2019-04-30T19:17:41.318Z,99.90
2019-04-30T19:20:15.643Z,99.90
2019-04-30T19:22:49.187Z,99.90
2019-04-30T19:25:20.872Z,99.90
2019-04-30T19:27:52.159Z,99.90
2019-04-30T19:30:25.356Z,99.90
2019-04-30T19:32:56.639Z,99.90
2019-04-30T19:35:26.994Z,99.90
2019-04-30T19:37:56.539Z,99.90
2019-04-30T19:40:28.636Z,99.90
2019-04-30T19:42:57.929Z,99.90
2019-04-30T19:45:29.137Z,99.90
2019-04-30T19:48:01.080Z,99.90
2019-04-30T19:50:34.368Z,99.90
2019-04-30T19:53:08.763Z,99.90
2019-04-30T19:55:39.775Z,99.90
2019-04-30T19:58:11.895Z,99.90
2019-04-30T20:00:42.420Z,99.90
2019-04-30T20:03:14.421Z,99.90
2019-04-30T20:05:44.861Z,99.90
2019-04-30T20:08:19.741Z,99.90
2019-04-30T20:10:54.892Z,99.90
2019-04-30T20:13:36.993Z,99.90
2019-04-30T20:16:04.080Z,99.90
2019-04-30T20:18:36.345Z,99.90
2019-04-30T20:21:09.777Z,99.90
2019-04-30T20:23:40.862Z,99.90
2019-04-30T20:26:12.581Z,99.90
2019-04-30T20:28:42.908Z,99.90
2019-04-30T20:31:11.753Z,99.90
2019-04-30T20:33:42.114Z,99.90
2019-04-30T20:36:10.931Z,99.90
2019-04-30T20:38:41.350Z,99.90
2019-04-30T20:41:11.648Z,99.90
2019-04-30T20:43:40.435Z,99.90
2019-04-30T20:46:09.263Z,99.90
2019-04-30T20:48:39.336Z,99.90
2019-04-30T20:51:09.591Z,99.90
2019-04-30T20:53:39.102Z,99.90
2019-04-30T20:56:09.295Z,99.90
2019-04-30T20:58:42.034Z,99.90
2019-04-30T21:01:09.616Z,99.90
2019-04-30T21:03:39.597Z,99.90
2019-04-30T21:06:08.865Z,99.90
2019-04-30T21:08:37.857Z,99.90
2019-04-30T21:11:06.642Z,99.90
2019-04-30T21:13:35.781Z,99.90
2019-04-30T21:16:05.584Z,99.90
2019-04-30T21:18:34.355Z,99.90
2019-04-30T21:21:03.186Z,99.90
2019-04-30T21:23:31.980Z,99.90
2019-04-30T21:26:00.805Z,99.90
2019-04-30T21:28:29.847Z,99.90
2019-04-30T21:31:00.369Z,99.90
2019-04-30T21:33:38.463Z,99.90
2019-04-30T21:36:09.373Z,99.90
2019-04-30T21:38:38.922Z,99.90
2019-04-30T21:41:09.817Z,99.90
2019-04-30T21:43:38.321Z,99.90
2019-04-30T21:46:09.376Z,99.90
2019-04-30T21:48:38.826Z,99.90
2019-04-30T21:51:09.469Z,99.90
2019-04-30T21:53:39.579Z,99.90
2019-04-30T21:56:08.910Z,99.90
2019-04-30T21:58:39.247Z,99.90
2019-04-30T22:01:14.596Z,99.90
2019-04-30T22:03:45.186Z,99.90
2019-04-30T22:06:14.506Z,99.90
2019-04-30T22:08:43.405Z,99.90
2019-04-30T22:11:12.232Z,99.90
2019-04-30T22:13:43.232Z,99.90
2019-04-30T22:16:12.518Z,99.90
2019-04-30T22:18:41.378Z,99.90
2019-04-30T22:21:10.271Z,99.90
2019-04-30T22:23:39.553Z,99.90
2019-04-30T22:26:08.360Z,99.90
2019-04-30T22:28:39.106Z,99.90
2019-04-30T22:31:08.641Z,99.90
2019-04-30T22:33:39.240Z,99.90
2019-04-30T22:36:10.920Z,99.90
2019-04-30T22:38:51.052Z,99.90
2019-04-30T22:41:21.459Z,99.90
2019-04-30T22:43:50.272Z,99.90
2019-04-30T22:46:20.453Z,99.90
2019-04-30T22:48:49.279Z,99.90
2019-04-30T22:51:18.469Z,99.90
2019-04-30T22:53:47.303Z,99.90
2019-04-30T22:56:16.105Z,99.90
2019-04-30T22:58:44.948Z,99.90
2019-04-30T23:01:24.399Z,99.90
2019-04-30T23:03:54.808Z,99.90
2019-04-30T23:06:23.621Z,99.90
2019-04-30T23:08:52.451Z,99.90
2019-04-30T23:11:21.272Z,99.90
2019-04-30T23:13:50.129Z,99.90
2019-04-30T23:16:18.970Z,99.90
2019-04-30T23:18:48.703Z,99.90
2019-04-30T23:21:17.852Z,99.90
2019-04-30T23:23:46.670Z,99.90
2019-04-30T23:26:15.471Z,99.90
2019-04-30T23:28:44.318Z,99.90
2019-04-30T23:31:13.128Z,99.90
2019-04-30T23:33:41.971Z,99.90
2019-04-30T23:36:10.883Z,99.90
2019-04-30T23:38:39.594Z,99.90
2019-04-30T23:41:08.738Z,99.90
2019-04-30T23:43:37.548Z,99.90
2019-04-30T23:46:06.361Z,99.90
2019-04-30T23:48:35.514Z,99.90
2019-04-30T23:51:04.542Z,99.90
2019-04-30T23:53:34.287Z,99.90
2019-04-30T23:56:03.112Z,99.90
2019-04-30T23:58:31.941Z,99.90
